createdAt,value
2019-02-15T00:01:04.024Z,74.77
2019-02-15T00:03:33.371Z,80.37
2019-02-15T00:06:02.399Z,89.10
2019-02-15T00:08:31.738Z,90.07
2019-02-15T00:11:00.795Z,81.70
2019-02-15T00:13:30.045Z,78.13
2019-02-15T00:15:59.098Z,90.87
2019-02-15T00:18:35.039Z,105.93
2019-02-15T00:21:24.922Z,81.77
2019-02-15T00:23:53.936Z,95.00
2019-02-15T00:26:23.008Z,82.87
2019-02-15T00:28:52.022Z,78.17
2019-02-15T00:31:22.386Z,70.03
2019-02-15T00:33:51.399Z,80.03
2019-02-15T00:36:20.775Z,90.10
2019-02-15T00:38:49.823Z,72.60
2019-02-15T00:41:18.834Z,85.97
2019-02-15T00:43:47.872Z,73.10
2019-02-15T00:46:41.813Z,90.60
2019-02-15T00:49:15.934Z,95.33
2019-02-15T00:52:01.324Z,97.87
2019-02-15T00:54:47.038Z,86.47
2019-02-15T00:57:23.924Z,84.20
2019-02-15T01:00:02.506Z,96.73
2019-02-15T01:02:49.221Z,69.40
2019-02-15T01:05:36.193Z,91.93
2019-02-15T01:08:30.526Z,87.70
2019-02-15T01:11:07.086Z,93.13
2019-02-15T01:13:36.146Z,78.70
2019-02-15T01:16:05.188Z,82.90
2019-02-15T01:18:34.212Z,95.73
2019-02-15T01:21:03.228Z,92.13
2019-02-15T01:23:32.279Z,69.03
2019-02-15T01:26:32.589Z,67.53
2019-02-15T01:29:32.596Z,75.97
2019-02-15T01:32:28.950Z,80.40
2019-02-15T01:35:15.762Z,69.30
2019-02-15T01:38:03.813Z,82.50
2019-02-15T01:40:50.814Z,84.37
2019-02-15T01:43:44.665Z,69.67
2019-02-15T01:46:20.437Z,69.43
2019-02-15T01:48:49.498Z,65.10
2019-02-15T01:51:18.857Z,84.57
2019-02-15T01:53:47.886Z,77.07
2019-02-15T01:56:16.938Z,79.40
2019-02-15T01:58:45.958Z,69.87
2019-02-15T02:01:20.102Z,70.97
2019-02-15T02:03:49.169Z,62.40
2019-02-15T02:06:18.216Z,69.73
2019-02-15T02:08:47.277Z,60.77
2019-02-15T02:11:16.354Z,59.33
2019-02-15T02:13:49.720Z,66.70
2019-02-15T02:16:16.099Z,74.30
2019-02-15T02:18:45.154Z,54.13
2019-02-15T02:21:14.179Z,51.47
2019-02-15T02:23:43.228Z,50.47
2019-02-15T02:26:12.446Z,50.20
2019-02-15T02:28:41.422Z,47.63
2019-02-15T02:31:10.481Z,58.30
2019-02-15T02:33:39.494Z,50.73
2019-02-15T02:36:08.573Z,49.50
2019-02-15T02:38:37.591Z,50.63
2019-02-15T02:41:06.924Z,55.93
2019-02-15T02:43:35.974Z,54.83
2019-02-15T02:46:05.001Z,48.73
2019-02-15T02:48:34.132Z,48.27
2019-02-15T02:51:03.164Z,55.53
2019-02-15T02:53:32.592Z,58.67
2019-02-15T02:56:01.907Z,53.90
2019-02-15T02:58:30.959Z,50.17
2019-02-15T03:00:59.915Z,62.73
2019-02-15T03:03:28.994Z,56.60
2019-02-15T03:05:58.063Z,49.10
2019-02-15T03:08:27.140Z,61.40
2019-02-15T03:10:56.178Z,49.13
2019-02-15T03:13:25.193Z,51.03
2019-02-15T03:15:54.170Z,51.77
2019-02-15T03:18:23.225Z,52.97
2019-02-15T03:20:52.282Z,49.90
2019-02-15T03:23:21.234Z,52.63
2019-02-15T03:25:50.307Z,55.80
2019-02-15T03:28:19.706Z,53.50
2019-02-15T03:30:48.751Z,56.00
2019-02-15T03:33:17.782Z,50.57
2019-02-15T03:35:59.103Z,53.40
2019-02-15T03:38:42.178Z,60.90
2019-02-15T03:41:26.484Z,54.83
2019-02-15T03:43:56.241Z,48.87
2019-02-15T03:46:25.568Z,44.73
2019-02-15T03:48:54.598Z,51.50
2019-02-15T03:51:23.651Z,47.70
2019-02-15T03:53:52.703Z,55.47
2019-02-15T03:56:21.760Z,53.43
2019-02-15T03:58:50.826Z,48.20
2019-02-15T04:01:20.289Z,50.57
2019-02-15T04:03:49.329Z,48.30
2019-02-15T04:06:18.401Z,46.60
2019-02-15T04:08:47.707Z,48.10
2019-02-15T04:11:16.731Z,51.80
2019-02-15T04:13:45.653Z,47.37
2019-02-15T04:16:14.675Z,57.47
2019-02-15T04:18:43.635Z,53.67
2019-02-15T04:21:12.692Z,53.83
2019-02-15T04:23:41.726Z,52.83
2019-02-15T04:26:10.854Z,46.53
2019-02-15T04:28:39.923Z,46.90
2019-02-15T04:31:08.908Z,47.20
2019-02-15T04:33:37.990Z,51.27
2019-02-15T04:36:06.918Z,44.40
2019-02-15T04:38:35.973Z,50.40
2019-02-15T04:41:05.033Z,54.53
2019-02-15T04:43:34.085Z,58.33
2019-02-15T04:46:03.109Z,68.43
2019-02-15T04:48:32.088Z,47.00
2019-02-15T04:51:01.102Z,51.30
2019-02-15T04:53:30.171Z,45.90
2019-02-15T04:55:59.225Z,46.70
2019-02-15T04:58:28.544Z,48.90
2019-02-15T05:00:57.607Z,41.60
2019-02-15T05:03:27.036Z,44.87
2019-02-15T05:05:56.053Z,45.10
2019-02-15T05:08:25.058Z,45.70
2019-02-15T05:10:54.085Z,50.13
2019-02-15T05:13:23.120Z,44.20
2019-02-15T05:15:52.181Z,44.60
2019-02-15T05:18:21.132Z,47.70
2019-02-15T05:20:50.241Z,46.97
2019-02-15T05:23:19.191Z,47.60
2019-02-15T05:25:48.201Z,45.17
2019-02-15T05:28:17.174Z,44.13
2019-02-15T05:30:46.556Z,42.67
2019-02-15T05:33:15.536Z,47.07
2019-02-15T05:35:44.531Z,50.07
2019-02-15T05:38:13.560Z,46.10
2019-02-15T05:40:42.636Z,54.33
2019-02-15T05:43:12.024Z,50.00
2019-02-15T05:45:40.980Z,41.23
2019-02-15T05:48:10.046Z,48.77
2019-02-15T05:50:39.401Z,41.67
2019-02-15T05:53:08.730Z,43.07
2019-02-15T05:55:37.799Z,47.23
2019-02-15T05:58:06.820Z,46.93
2019-02-15T06:00:37.302Z,45.97
2019-02-15T06:03:06.513Z,46.07
2019-02-15T06:05:35.456Z,51.03
2019-02-15T06:08:04.773Z,41.63
2019-02-15T06:10:33.842Z,40.47
2019-02-15T06:13:03.141Z,46.90
2019-02-15T06:15:32.139Z,52.03
2019-02-15T06:18:01.206Z,47.80
2019-02-15T06:20:30.240Z,50.63
2019-02-15T06:22:59.287Z,46.40
2019-02-15T06:25:28.384Z,47.43
2019-02-15T06:27:57.378Z,44.73
2019-02-15T06:30:26.397Z,47.27
2019-02-15T06:32:55.488Z,52.00
2019-02-15T06:35:24.891Z,50.53
2019-02-15T06:37:53.945Z,52.30
2019-02-15T06:40:23.022Z,42.73
2019-02-15T06:42:52.365Z,45.20
2019-02-15T06:45:24.982Z,42.70
2019-02-15T06:47:52.159Z,42.97
2019-02-15T06:50:21.224Z,41.73
2019-02-15T06:52:50.243Z,44.10
2019-02-15T06:55:19.570Z,44.60
2019-02-15T06:57:48.562Z,43.57
2019-02-15T07:00:48.643Z,43.80
2019-02-15T07:03:43.066Z,45.10
2019-02-15T07:06:12.085Z,47.47
2019-02-15T07:08:41.266Z,40.43
2019-02-15T07:11:10.270Z,42.20
2019-02-15T07:13:39.437Z,46.10
2019-02-15T07:16:08.486Z,42.00
2019-02-15T07:18:37.523Z,43.57
2019-02-15T07:21:06.577Z,40.47
2019-02-15T07:23:35.600Z,42.73
2019-02-15T07:26:04.652Z,42.37
2019-02-15T07:28:33.689Z,41.33
2019-02-15T07:31:02.697Z,40.73
2019-02-15T07:33:31.771Z,43.07
2019-02-15T07:36:00.781Z,38.07
2019-02-15T07:38:29.821Z,40.17
2019-02-15T07:40:59.156Z,35.23
2019-02-15T07:43:28.166Z,34.73
2019-02-15T07:45:57.512Z,36.47
2019-02-15T07:48:26.422Z,38.80
2019-02-15T07:50:55.809Z,42.73
2019-02-15T07:53:24.906Z,41.20
2019-02-15T07:55:53.951Z,37.67
2019-02-15T07:58:22.960Z,39.97
2019-02-15T08:00:52.031Z,40.80
2019-02-15T08:03:21.076Z,36.90
2019-02-15T08:05:50.137Z,40.73
2019-02-15T08:08:19.125Z,39.30
2019-02-15T08:10:48.177Z,36.93
2019-02-15T08:13:17.242Z,36.17
2019-02-15T08:15:52.054Z,35.23
2019-02-15T08:18:17.024Z,38.90
2019-02-15T08:20:46.074Z,36.23
2019-02-15T08:23:15.150Z,36.13
2019-02-15T08:25:44.176Z,37.40
2019-02-15T08:28:13.196Z,38.43
2019-02-15T08:30:42.165Z,37.67
2019-02-15T08:33:11.277Z,38.57
2019-02-15T08:35:40.294Z,36.90
2019-02-15T08:38:09.238Z,38.43
2019-02-15T08:40:38.570Z,37.47
2019-02-15T08:43:07.651Z,35.07
2019-02-15T08:45:36.697Z,36.37
2019-02-15T08:48:05.645Z,38.93
2019-02-15T08:50:34.697Z,38.67
2019-02-15T08:53:03.823Z,37.37
2019-02-15T08:55:32.795Z,35.73
2019-02-15T08:58:01.811Z,34.97
2019-02-15T09:00:30.761Z,36.20
2019-02-15T09:02:59.816Z,37.87
2019-02-15T09:05:28.826Z,38.90
2019-02-15T09:07:57.761Z,39.23
2019-02-15T09:10:26.801Z,38.03
2019-02-15T09:12:55.779Z,40.73
2019-02-15T09:15:24.896Z,36.73
2019-02-15T09:17:53.829Z,35.70
2019-02-15T09:20:23.266Z,38.50
2019-02-15T09:22:52.325Z,35.10
2019-02-15T09:25:21.339Z,36.73
2019-02-15T09:28:15.510Z,36.70
2019-02-15T09:30:47.786Z,36.37
2019-02-15T09:33:17.149Z,35.07
2019-02-15T09:35:46.174Z,36.70
2019-02-15T09:38:15.193Z,36.00
2019-02-15T09:40:44.254Z,35.43
2019-02-15T09:43:13.271Z,33.40
2019-02-15T09:45:42.316Z,37.80
2019-02-15T09:48:11.343Z,33.63
2019-02-15T09:50:40.409Z,33.30
2019-02-15T09:53:09.418Z,36.40
2019-02-15T09:55:38.496Z,32.33
2019-02-15T09:58:07.604Z,29.00
2019-02-15T10:00:37.669Z,31.37
2019-02-15T10:03:06.735Z,31.63
2019-02-15T10:05:35.673Z,31.83
2019-02-15T10:08:04.685Z,31.73
2019-02-15T10:10:33.737Z,33.63
2019-02-15T10:13:02.716Z,33.70
2019-02-15T10:15:31.781Z,31.73
2019-02-15T10:18:00.824Z,33.40
2019-02-15T10:20:30.123Z,31.50
2019-02-15T10:22:59.116Z,31.43
2019-02-15T10:25:28.115Z,30.87
2019-02-15T10:27:57.126Z,31.70
2019-02-15T10:30:26.176Z,30.57
2019-02-15T10:32:55.188Z,28.70
2019-02-15T10:35:24.289Z,31.13
2019-02-15T10:37:53.685Z,31.27
2019-02-15T10:40:22.980Z,30.10
2019-02-15T10:42:52.040Z,28.90
2019-02-15T10:45:21.056Z,26.87
2019-02-15T10:47:50.118Z,27.50
2019-02-15T10:50:19.134Z,29.33
2019-02-15T10:52:48.198Z,29.20
2019-02-15T10:55:17.220Z,28.53
2019-02-15T10:57:46.241Z,27.40
2019-02-15T11:00:19.646Z,27.93
2019-02-15T11:02:49.472Z,25.50
2019-02-15T11:05:18.634Z,25.03
2019-02-15T11:07:47.662Z,27.53
2019-02-15T11:10:16.734Z,25.57
2019-02-15T11:12:45.755Z,24.87
2019-02-15T11:15:14.911Z,24.67
2019-02-15T11:17:43.943Z,24.33
2019-02-15T11:20:13.633Z,24.00
2019-02-15T11:22:42.707Z,24.90
2019-02-15T11:25:11.878Z,24.87
2019-02-15T11:27:40.887Z,23.73
2019-02-15T11:30:12.166Z,24.00
2019-02-15T11:32:41.195Z,23.70
2019-02-15T11:35:11.439Z,22.80
2019-02-15T11:37:40.902Z,19.97
2019-02-15T11:40:11.575Z,21.40
2019-02-15T11:42:40.595Z,19.57
2019-02-15T11:45:10.742Z,20.60
2019-02-15T11:47:39.756Z,20.70
2019-02-15T11:50:10.310Z,18.40
2019-02-15T11:52:39.555Z,19.30
2019-02-15T11:55:09.009Z,17.83
2019-02-15T11:57:38.066Z,19.70
2019-02-15T12:00:14.220Z,18.97
2019-02-15T12:02:40.009Z,18.40
2019-02-15T12:05:09.403Z,19.00
2019-02-15T12:07:38.883Z,19.00
2019-02-15T12:10:08.197Z,17.30
2019-02-15T12:12:37.254Z,16.90
2019-02-15T12:15:06.798Z,16.30
2019-02-15T12:17:35.858Z,15.30
2019-02-15T12:20:05.234Z,15.83
2019-02-15T12:22:34.220Z,17.90
2019-02-15T12:25:03.290Z,16.37
2019-02-15T12:27:32.306Z,16.43
2019-02-15T12:30:01.261Z,14.80
2019-02-15T12:32:30.329Z,15.63
2019-02-15T12:34:59.757Z,13.23
2019-02-15T12:37:28.812Z,14.80
2019-02-15T12:39:57.828Z,13.90
2019-02-15T12:42:26.888Z,15.60
2019-02-15T12:44:55.867Z,12.90
2019-02-15T12:47:24.932Z,13.20
2019-02-15T12:49:55.722Z,13.07
2019-02-15T12:52:24.819Z,11.80
2019-02-15T12:54:53.929Z,13.20
2019-02-15T12:57:22.996Z,12.87
2019-02-15T12:59:52.282Z,13.00
2019-02-15T13:02:21.354Z,12.97
2019-02-15T13:04:50.405Z,11.70
2019-02-15T13:07:19.461Z,13.13
2019-02-15T13:09:48.529Z,12.30
2019-02-15T13:12:17.549Z,12.70
2019-02-15T13:14:46.606Z,11.57
2019-02-15T13:17:24.215Z,13.03
2019-02-15T13:19:46.438Z,12.57
2019-02-15T13:22:15.458Z,14.00
2019-02-15T13:24:44.541Z,12.57
2019-02-15T13:27:13.573Z,12.43
2019-02-15T13:29:42.842Z,12.00
2019-02-15T13:32:11.973Z,11.33
2019-02-15T13:34:41.041Z,12.60
2019-02-15T13:37:09.966Z,12.83
2019-02-15T13:39:39.025Z,11.90
2019-02-15T13:42:08.043Z,12.23
2019-02-15T13:44:37.127Z,12.20
2019-02-15T13:47:06.234Z,12.67
2019-02-15T13:49:35.294Z,13.70
2019-02-15T13:52:04.403Z,13.00
2019-02-15T13:54:33.393Z,12.70
2019-02-15T13:57:02.459Z,11.63
2019-02-15T13:59:31.719Z,12.23
2019-02-15T14:02:00.735Z,11.60
2019-02-15T14:04:29.800Z,13.80
2019-02-15T14:06:58.819Z,14.87
2019-02-15T14:09:27.841Z,13.47
2019-02-15T14:11:56.903Z,12.13
2019-02-15T14:14:25.938Z,11.20
2019-02-15T14:16:54.969Z,11.27
2019-02-15T14:19:24.045Z,13.27
2019-02-15T14:21:53.062Z,10.63
2019-02-15T14:24:22.345Z,10.50
2019-02-15T14:26:51.672Z,10.10
2019-02-15T14:29:20.745Z,9.50
2019-02-15T14:31:49.973Z,10.00
2019-02-15T14:34:19.022Z,9.30
2019-02-15T14:36:48.065Z,9.33
2019-02-15T14:39:17.213Z,10.23
2019-02-15T14:41:46.234Z,8.07
2019-02-15T14:44:15.569Z,9.83
2019-02-15T14:46:44.643Z,9.30
2019-02-15T14:49:13.669Z,8.93
2019-02-15T14:51:42.671Z,10.13
2019-02-15T14:54:11.637Z,9.10
2019-02-15T14:56:40.658Z,8.27
2019-02-15T14:59:09.725Z,8.10
2019-02-15T15:01:38.655Z,7.63
2019-02-15T15:04:07.677Z,8.07
2019-02-15T15:06:36.710Z,7.87
2019-02-15T15:09:07.225Z,8.30
2019-02-15T15:11:36.311Z,7.83
2019-02-15T15:14:05.339Z,8.10
2019-02-15T15:16:34.342Z,8.00
2019-02-15T15:19:03.402Z,7.83
2019-02-15T15:21:32.509Z,8.43
2019-02-15T15:24:01.526Z,8.33
2019-02-15T15:26:30.529Z,8.00
2019-02-15T15:28:59.589Z,9.70
2019-02-15T15:31:28.606Z,8.43
2019-02-15T15:33:57.632Z,9.10
2019-02-15T15:36:26.700Z,9.50
2019-02-15T15:38:55.731Z,9.03
2019-02-15T15:41:24.813Z,10.67
2019-02-15T15:43:53.843Z,9.30
2019-02-15T15:46:22.851Z,8.77
2019-02-15T15:48:51.915Z,8.90
2019-02-15T15:51:20.926Z,10.67
2019-02-15T15:53:49.915Z,9.80
2019-02-15T15:56:19.019Z,9.20
2019-02-15T15:58:48.045Z,9.10
2019-02-15T16:01:17.090Z,9.47
2019-02-15T16:03:46.157Z,9.30
2019-02-15T16:06:24.057Z,10.17
2019-02-15T16:08:46.476Z,9.57
2019-02-15T16:11:15.479Z,9.60
2019-02-15T16:13:44.883Z,9.90
2019-02-15T16:16:13.938Z,10.23
2019-02-15T16:18:42.951Z,11.37
2019-02-15T16:21:11.925Z,11.20
2019-02-15T16:23:40.828Z,11.83
2019-02-15T16:26:09.885Z,11.50
2019-02-15T16:28:39.375Z,11.10
2019-02-15T16:31:08.714Z,11.40
2019-02-15T16:33:37.698Z,11.33
2019-02-15T16:36:06.757Z,11.47
2019-02-15T16:38:35.764Z,11.87
2019-02-15T16:41:04.805Z,12.07
2019-02-15T16:43:34.205Z,12.33
2019-02-15T16:46:03.308Z,12.67
2019-02-15T16:48:41.686Z,11.77
2019-02-15T16:51:03.100Z,12.37
2019-02-15T16:53:32.144Z,11.93
2019-02-15T16:56:01.162Z,12.53
2019-02-15T16:58:30.204Z,11.80
2019-02-15T17:00:59.288Z,11.77
2019-02-15T17:03:28.579Z,13.00
2019-02-15T17:05:57.672Z,12.10
2019-02-15T17:08:28.627Z,12.90
2019-02-15T17:10:57.643Z,13.50
2019-02-15T17:13:26.662Z,12.53
2019-02-15T17:15:56.046Z,12.10
2019-02-15T17:18:25.472Z,12.53
2019-02-15T17:20:54.565Z,12.93
2019-02-15T17:23:23.569Z,12.57
2019-02-15T17:25:52.898Z,13.50
2019-02-15T17:28:21.962Z,13.33
2019-02-15T17:30:51.005Z,13.67
2019-02-15T17:33:19.951Z,13.20
2019-02-15T17:35:49.002Z,13.10
2019-02-15T17:38:18.017Z,13.07
2019-02-15T17:40:47.551Z,12.43
2019-02-15T17:43:16.491Z,12.00
2019-02-15T17:45:45.549Z,12.27
2019-02-15T17:48:14.862Z,13.73
2019-02-15T17:50:43.926Z,12.67
2019-02-15T17:53:12.987Z,13.27
2019-02-15T17:55:42.382Z,12.57
2019-02-15T17:58:11.389Z,12.70
2019-02-15T18:00:40.452Z,13.00
2019-02-15T18:03:09.468Z,12.80
2019-02-15T18:05:38.484Z,12.27
2019-02-15T18:08:07.526Z,11.40
2019-02-15T18:10:36.538Z,12.97
2019-02-15T18:13:05.588Z,12.40
2019-02-15T18:15:34.755Z,12.30
2019-02-15T18:18:03.807Z,12.70
2019-02-15T18:20:32.876Z,13.40
2019-02-15T18:23:01.926Z,14.63
2019-02-15T18:25:31.050Z,13.67
2019-02-15T18:28:00.072Z,14.07
2019-02-15T18:30:29.133Z,15.00
2019-02-15T18:32:58.227Z,14.03
2019-02-15T18:35:27.164Z,15.13
2019-02-15T18:37:56.180Z,15.33
2019-02-15T18:40:25.237Z,14.23
2019-02-15T18:42:54.318Z,14.13
2019-02-15T18:45:23.333Z,14.73
2019-02-15T18:47:52.345Z,14.57
2019-02-15T18:50:21.400Z,13.37
2019-02-15T18:52:50.410Z,13.70
2019-02-15T18:55:19.452Z,14.93
2019-02-15T18:57:49.299Z,15.30
2019-02-15T19:00:18.428Z,14.57
2019-02-15T19:02:47.519Z,14.37
2019-02-15T19:05:16.582Z,14.43
2019-02-15T19:07:45.589Z,15.33
2019-02-15T19:10:16.358Z,34.90
2019-02-15T19:12:45.414Z,63.43
2019-02-15T19:15:15.389Z,35.17
2019-02-15T19:17:44.415Z,21.97
2019-02-15T19:20:14.021Z,23.67
2019-02-15T19:22:43.465Z,19.20
2019-02-15T19:25:13.250Z,18.70
2019-02-15T19:27:42.271Z,17.90
2019-02-15T19:30:13.894Z,18.40
2019-02-15T19:32:43.066Z,17.23
2019-02-15T19:35:12.171Z,17.50
2019-02-15T19:37:41.231Z,17.37
2019-02-15T19:40:11.471Z,16.80
2019-02-15T19:42:41.766Z,17.50
2019-02-15T19:45:11.925Z,17.47
2019-02-15T19:47:40.961Z,18.27
2019-02-15T19:50:11.974Z,18.30
2019-02-15T19:52:41.529Z,18.40
2019-02-15T19:55:10.892Z,16.67
2019-02-15T19:57:39.946Z,19.20
2019-02-15T20:00:12.546Z,20.37
2019-02-15T20:02:41.556Z,19.10
2019-02-15T20:05:10.567Z,17.60
2019-02-15T20:07:39.661Z,18.80
2019-02-15T20:10:11.418Z,20.37
2019-02-15T20:12:40.453Z,18.43
2019-02-15T20:15:12.457Z,17.37
2019-02-15T20:17:41.899Z,17.60
2019-02-15T20:20:12.125Z,17.83
2019-02-15T20:22:41.160Z,17.67
2019-02-15T20:25:10.720Z,17.77
2019-02-15T20:27:39.737Z,18.30
2019-02-15T20:30:14.556Z,16.40
2019-02-15T20:32:43.588Z,16.03
2019-02-15T20:35:13.620Z,17.00
2019-02-15T20:37:42.830Z,17.13
2019-02-15T20:40:11.927Z,17.93
2019-02-15T20:42:40.973Z,18.73
2019-02-15T20:45:13.038Z,19.30
2019-02-15T20:47:42.106Z,21.03
2019-02-15T20:50:11.175Z,19.03
2019-02-15T20:52:40.220Z,18.93
2019-02-15T20:55:10.607Z,17.27
2019-02-15T20:57:39.675Z,18.47
2019-02-15T21:00:14.574Z,18.70
2019-02-15T21:02:43.617Z,18.30
2019-02-15T21:05:12.656Z,18.30
2019-02-15T21:07:41.702Z,17.13
2019-02-15T21:10:11.206Z,16.67
2019-02-15T21:12:40.260Z,16.40
2019-02-15T21:15:09.898Z,17.20
2019-02-15T21:17:38.948Z,17.03
2019-02-15T21:20:09.482Z,16.57
2019-02-15T21:22:38.491Z,17.07
2019-02-15T21:25:08.878Z,17.60
2019-02-15T21:27:37.948Z,17.23
2019-02-15T21:30:08.863Z,17.37
2019-02-15T21:32:37.873Z,16.37
2019-02-15T21:35:06.952Z,16.20
2019-02-15T21:37:35.965Z,17.33
2019-02-15T21:40:05.561Z,17.17
2019-02-15T21:42:34.553Z,16.17
2019-02-15T21:45:03.561Z,16.13
2019-02-15T21:47:32.586Z,16.40
2019-02-15T21:50:01.838Z,17.13
2019-02-15T21:52:30.798Z,16.67
2019-02-15T21:54:59.849Z,16.40
2019-02-15T21:57:29.181Z,16.73
2019-02-15T21:59:58.224Z,16.20
2019-02-15T22:02:27.273Z,15.83
2019-02-15T22:04:56.391Z,15.33
2019-02-15T22:07:25.805Z,16.13
2019-02-15T22:09:54.881Z,15.17
2019-02-15T22:12:24.508Z,15.70
2019-02-15T22:14:53.521Z,16.23
2019-02-15T22:17:22.475Z,16.37
2019-02-15T22:19:51.447Z,16.30
2019-02-15T22:22:20.500Z,17.30
2019-02-15T22:24:49.557Z,15.50
2019-02-15T22:27:18.542Z,16.10
2019-02-15T22:29:47.558Z,16.47
2019-02-15T22:32:16.521Z,15.73
2019-02-15T22:34:45.543Z,16.97
2019-02-15T22:37:14.476Z,15.70
2019-02-15T22:39:43.578Z,17.27
2019-02-15T22:42:12.626Z,18.13
2019-02-15T22:44:41.756Z,17.20
2019-02-15T22:47:10.829Z,17.70
2019-02-15T22:49:43.373Z,18.17
2019-02-15T22:52:10.599Z,17.93
2019-02-15T22:54:39.658Z,16.53
2019-02-15T22:57:09.043Z,18.07
2019-02-15T22:59:38.047Z,16.70
2019-02-15T23:02:07.107Z,17.40
2019-02-15T23:04:36.137Z,19.00
2019-02-15T23:07:05.181Z,17.97
2019-02-15T23:09:34.311Z,18.03
2019-02-15T23:12:03.369Z,18.73
2019-02-15T23:14:32.467Z,18.00
2019-02-15T23:17:01.813Z,20.10
2019-02-15T23:19:30.875Z,18.83
2019-02-15T23:21:59.899Z,17.57
2019-02-15T23:24:28.912Z,15.90
2019-02-15T23:26:57.963Z,15.53
2019-02-15T23:29:27.015Z,17.00
2019-02-15T23:31:56.026Z,15.63
2019-02-15T23:34:25.076Z,15.73
2019-02-15T23:36:54.143Z,17.10
2019-02-15T23:39:23.416Z,17.00
2019-02-15T23:41:52.459Z,17.10
2019-02-15T23:44:21.461Z,17.30
2019-02-15T23:46:50.507Z,16.57
2019-02-15T23:49:19.523Z,16.53
2019-02-15T23:51:48.587Z,17.20
2019-02-15T23:54:18.244Z,18.20
2019-02-15T23:56:47.284Z,17.20
2019-02-15T23:59:16.223Z,18.53
